createdAt,value
2023-05-08T00:01:32.748Z,53.2
2023-05-08T00:03:32.871Z,52.3
2023-05-08T00:05:32.929Z,53.5
2023-05-08T00:07:43.479Z,52.5
2023-05-08T00:09:02.629Z,52.4
2023-05-08T00:09:36.240Z,52.8
2023-05-08T00:11:36.420Z,52.4
2023-05-08T00:13:37.401Z,51.8
2023-05-08T00:15:36.328Z,52.2
2023-05-08T00:17:34.703Z,52.6
2023-05-08T00:19:34.694Z,53.5
2023-05-08T00:21:34.672Z,53
2023-05-08T00:23:34.704Z,53
2023-05-08T00:25:34.735Z,52.9
2023-05-08T00:27:34.686Z,52.9
2023-05-08T00:29:34.690Z,52.5
2023-05-08T00:31:34.777Z,53.8
2023-05-08T00:33:34.702Z,52.9
2023-05-08T00:35:34.721Z,54.1
2023-05-08T00:37:34.659Z,53.9
2023-05-08T00:39:34.805Z,54
2023-05-08T00:41:34.683Z,55.2
2023-05-08T00:43:34.886Z,54.4
2023-05-08T00:45:34.681Z,53.6
2023-05-08T00:47:34.747Z,54.5
2023-05-08T00:49:34.644Z,55.2
2023-05-08T00:51:34.652Z,54.6
2023-05-08T00:53:34.683Z,54.3
2023-05-08T00:55:34.734Z,54.3
2023-05-08T00:57:34.755Z,54.5
2023-05-08T00:59:34.648Z,54.9
2023-05-08T01:01:34.688Z,54.8
2023-05-08T01:03:34.781Z,54.4
2023-05-08T01:05:34.696Z,54.6
2023-05-08T01:07:34.647Z,54.7
2023-05-08T01:09:34.647Z,56.3
2023-05-08T01:11:34.652Z,55.5
2023-05-08T01:13:34.652Z,55.7
2023-05-08T01:15:34.717Z,55.9
2023-05-08T01:17:34.656Z,55.8
2023-05-08T01:19:34.663Z,55.5
2023-05-08T01:21:34.661Z,55.1
2023-05-08T01:23:34.740Z,55.2
2023-05-08T01:25:34.620Z,55.4
2023-05-08T01:27:34.627Z,55.3
2023-05-08T01:29:34.623Z,56
2023-05-08T01:31:34.641Z,56.2
2023-05-08T01:33:34.774Z,55.5
2023-05-08T01:35:34.586Z,55.3
2023-05-08T01:37:34.642Z,55.4
2023-05-08T01:39:34.641Z,55.8
2023-05-08T01:41:34.602Z,56.8
2023-05-08T01:43:34.636Z,56.3
2023-05-08T01:45:34.605Z,55.9
2023-05-08T01:47:34.621Z,56.4
2023-05-08T01:49:34.612Z,56.8
2023-05-08T01:51:34.727Z,56.5
2023-05-08T01:53:34.780Z,57.5
2023-05-08T01:55:35.966Z,57.1
2023-05-08T01:57:35.895Z,58.1
2023-05-08T01:59:34.622Z,61.4
2023-05-08T02:01:34.591Z,61.3
2023-05-08T02:03:34.673Z,59.9
2023-05-08T02:05:34.554Z,60.4
2023-05-08T02:07:34.595Z,59.5
2023-05-08T02:09:34.577Z,60.6
2023-05-08T02:11:34.728Z,63.5
2023-05-08T02:13:34.576Z,63.1
2023-05-08T02:15:34.603Z,64.3
2023-05-08T02:17:34.752Z,66.4
2023-05-08T02:19:34.632Z,67.5
2023-05-08T02:21:34.572Z,68.1
2023-05-08T02:23:34.568Z,65.9
2023-05-08T02:25:34.840Z,67.5
2023-05-08T02:27:34.581Z,64.5
2023-05-08T02:29:34.587Z,65.4
2023-05-08T02:31:34.739Z,67.8
2023-05-08T02:33:34.577Z,69.9
2023-05-08T02:35:34.568Z,71.1
2023-05-08T02:37:34.553Z,72.6
2023-05-08T02:39:34.579Z,77.7
2023-05-08T02:41:34.558Z,77
2023-05-08T02:43:36.006Z,74.9
2023-05-08T02:45:34.567Z,78.9
2023-05-08T02:47:34.658Z,80.4
2023-05-08T02:49:34.565Z,80.9
2023-05-08T02:51:34.523Z,81.1
2023-05-08T02:53:34.579Z,81.2
2023-05-08T02:55:34.521Z,82.4
2023-05-08T02:57:34.568Z,81.9
2023-05-08T02:59:34.571Z,82.8
2023-05-08T03:01:34.568Z,82.3
2023-05-08T03:03:34.579Z,79.8
2023-05-08T03:05:34.659Z,78.9
2023-05-08T03:07:34.537Z,77.3
2023-05-08T03:09:34.546Z,80.2
2023-05-08T03:11:34.530Z,81.6
2023-05-08T03:13:34.536Z,79.7
2023-05-08T03:15:34.604Z,77.9
2023-05-08T03:17:34.538Z,78.3
2023-05-08T03:19:34.741Z,77.5
2023-05-08T03:21:34.494Z,78.8
2023-05-08T03:23:35.840Z,79.6
2023-05-08T03:25:34.499Z,81.6
2023-05-08T03:27:34.510Z,80.8
2023-05-08T03:29:34.469Z,83.6
2023-05-08T03:31:34.570Z,83.2
2023-05-08T03:33:34.516Z,81.6
2023-05-08T03:35:34.487Z,82.7
2023-05-08T03:37:34.490Z,83
2023-05-08T03:39:34.520Z,85.3
2023-05-08T03:41:34.476Z,83.9
2023-05-08T03:43:34.527Z,83.3
2023-05-08T03:45:34.484Z,84.6
2023-05-08T03:47:34.568Z,82.4
2023-05-08T03:49:34.485Z,82.3
2023-05-08T03:51:34.553Z,81.9
2023-05-08T03:53:34.480Z,82.2
2023-05-08T03:55:34.494Z,83.3
2023-05-08T03:57:34.549Z,86.5
2023-05-08T03:59:34.494Z,86.6
2023-05-08T04:01:34.524Z,87
2023-05-08T04:03:34.481Z,86.5
2023-05-08T04:05:34.550Z,85.9
2023-05-08T04:07:34.470Z,86.1
2023-05-08T04:09:34.474Z,85.7
2023-05-08T04:11:34.481Z,85.9
2023-05-08T04:13:34.504Z,84.2
2023-05-08T04:15:34.434Z,84.3
2023-05-08T04:17:34.518Z,84.1
2023-05-08T04:19:34.448Z,84.7
2023-05-08T04:21:34.521Z,84.9
2023-05-08T04:23:34.418Z,83.9
2023-05-08T04:25:34.431Z,83.8
2023-05-08T04:27:34.413Z,84.6
2023-05-08T04:29:34.414Z,85.8
2023-05-08T04:31:35.809Z,85.9
2023-05-08T04:33:34.497Z,84.3
2023-05-08T04:35:34.521Z,85.6
2023-05-08T04:37:34.445Z,85.6
2023-05-08T04:39:34.413Z,85.2
2023-05-08T04:41:34.448Z,83.4
2023-05-08T04:43:34.453Z,83.3
2023-05-08T04:45:34.474Z,84.1
2023-05-08T04:47:34.514Z,85.2
2023-05-08T04:49:34.444Z,84.9
2023-05-08T04:51:34.479Z,84.5
2023-05-08T04:53:34.410Z,84
2023-05-08T04:55:34.546Z,85.5
2023-05-08T04:57:34.423Z,85.8
2023-05-08T04:59:34.428Z,84.9
2023-05-08T05:01:34.463Z,84.8
2023-05-08T05:03:34.592Z,84
2023-05-08T05:05:34.619Z,85.6
2023-05-08T05:07:34.424Z,85.1
2023-05-08T05:09:34.540Z,85.7
2023-05-08T05:11:34.439Z,85.9
2023-05-08T05:13:34.367Z,83.6
2023-05-08T05:15:34.393Z,85.7
2023-05-08T05:17:34.394Z,85.8
2023-05-08T05:19:34.365Z,83.8
2023-05-08T05:21:34.380Z,84.2
2023-05-08T05:23:34.370Z,84.1
2023-05-08T05:25:34.465Z,84.9
2023-05-08T05:27:34.354Z,83.7
2023-05-08T05:29:34.364Z,82.7
2023-05-08T05:31:35.799Z,84.6
2023-05-08T05:33:34.370Z,85.2
2023-05-08T05:35:34.422Z,85.3
2023-05-08T05:37:34.384Z,86.1
2023-05-08T05:39:34.371Z,86.7
2023-05-08T05:41:34.401Z,86.2
2023-05-08T05:43:34.338Z,86
2023-05-08T05:45:34.386Z,87
2023-05-08T05:47:34.345Z,86.5
2023-05-08T05:49:34.386Z,85.9
2023-05-08T05:51:34.330Z,85.9
2023-05-08T05:53:34.313Z,85.1
2023-05-08T05:55:34.329Z,85.6
2023-05-08T05:57:34.370Z,85.4
2023-05-08T05:59:34.336Z,85.1
2023-05-08T06:01:34.344Z,85.1
2023-05-08T06:03:34.451Z,84.3
2023-05-08T06:05:34.327Z,85.2
2023-05-08T06:07:34.313Z,85
2023-05-08T06:09:34.332Z,84.6
2023-05-08T06:11:34.330Z,85
2023-05-08T06:13:34.258Z,84.7
2023-05-08T06:15:34.298Z,85.4
2023-05-08T06:17:34.328Z,85.4
2023-05-08T06:19:34.309Z,86.3
2023-05-08T06:21:34.292Z,85.9
2023-05-08T06:23:34.272Z,84.3
2023-05-08T06:25:34.297Z,84.6
2023-05-08T06:27:34.285Z,85
2023-05-08T06:29:34.278Z,85
2023-05-08T06:31:34.392Z,84.7
2023-05-08T06:33:34.332Z,84
2023-05-08T06:35:34.293Z,84.9
2023-05-08T06:37:34.260Z,85.4
2023-05-08T06:39:34.324Z,86.1
2023-05-08T06:41:34.423Z,85.9
2023-05-08T06:43:34.271Z,84.4
2023-05-08T06:45:34.370Z,85.6
2023-05-08T06:47:34.304Z,85.9
2023-05-08T06:49:34.304Z,85.2
2023-05-08T06:51:34.293Z,85.6
2023-05-08T06:53:34.304Z,84.3
2023-05-08T06:55:34.273Z,86
2023-05-08T06:57:34.250Z,85.4
2023-05-08T06:59:34.282Z,84.6
2023-05-08T07:01:34.326Z,85.8
2023-05-08T07:03:34.251Z,84.9
2023-05-08T07:05:34.246Z,85.9
2023-05-08T07:07:34.293Z,85.2
2023-05-08T07:09:34.275Z,84.7
2023-05-08T07:11:34.254Z,84.2
2023-05-08T07:13:34.395Z,83.7
2023-05-08T07:15:34.274Z,84
2023-05-08T07:17:34.329Z,84.3
2023-05-08T07:19:34.225Z,84.7
2023-05-08T07:21:34.235Z,85.5
2023-05-08T07:23:34.228Z,84.4
2023-05-08T07:25:34.235Z,84.9
2023-05-08T07:27:34.304Z,85
2023-05-08T07:29:34.210Z,85.3
2023-05-08T07:31:34.250Z,84.3
2023-05-08T07:33:34.201Z,84.5
2023-05-08T07:35:34.232Z,85.3
2023-05-08T07:37:34.214Z,85.1
2023-05-08T07:39:34.242Z,85.6
2023-05-08T07:41:34.219Z,86.3
2023-05-08T07:43:34.206Z,85.1
2023-05-08T07:45:35.417Z,84.8
2023-05-08T07:47:34.325Z,84.3
2023-05-08T07:49:34.273Z,85.4
2023-05-08T07:51:34.240Z,85.3
2023-05-08T07:53:34.167Z,85.4
2023-05-08T07:55:34.193Z,85.7
2023-05-08T07:57:34.192Z,85.5
2023-05-08T07:59:34.262Z,84.4
2023-05-08T08:01:34.190Z,85.7
2023-05-08T08:03:34.352Z,85
2023-05-08T08:05:34.214Z,86.1
2023-05-08T08:07:34.187Z,85.5
2023-05-08T08:09:34.216Z,85.4
2023-05-08T08:11:34.183Z,84.8
2023-05-08T08:13:34.274Z,84.7
2023-05-08T08:15:34.165Z,83.9
2023-05-08T08:17:34.257Z,84.2
2023-05-08T08:19:34.362Z,83.9
2023-05-08T08:21:35.388Z,84.4
2023-05-08T08:23:34.140Z,83.7
2023-05-08T08:25:34.148Z,84
2023-05-08T08:27:34.230Z,85
2023-05-08T08:29:34.217Z,84.6
2023-05-08T08:31:34.377Z,85
2023-05-08T08:33:34.162Z,84.4
2023-05-08T08:35:34.192Z,84.7
2023-05-08T08:37:34.179Z,84
2023-05-08T08:39:34.172Z,83.9
2023-05-08T08:41:34.183Z,83.9
2023-05-08T08:43:34.153Z,83.9
2023-05-08T08:45:34.127Z,83.7
2023-05-08T08:47:34.201Z,83.3
2023-05-08T08:49:34.189Z,83.4
2023-05-08T08:51:35.675Z,84.2
2023-05-08T08:53:34.235Z,84.5
2023-05-08T08:55:34.296Z,83.4
2023-05-08T08:57:34.145Z,83.7
2023-05-08T08:59:34.117Z,83.5
2023-05-08T09:01:34.214Z,83.8
2023-05-08T09:03:34.181Z,83.3
2023-05-08T09:05:34.140Z,84.7
2023-05-08T09:07:34.109Z,84.9
2023-05-08T09:09:34.120Z,84.6
2023-05-08T09:11:34.107Z,85.6
2023-05-08T09:13:34.145Z,84.9
2023-05-08T09:15:34.169Z,84.2
2023-05-08T09:17:34.170Z,83.8
2023-05-08T09:19:34.143Z,84.3
2023-05-08T09:21:34.108Z,84.6
2023-05-08T09:23:34.231Z,84.8
2023-05-08T09:25:34.092Z,84.6
2023-05-08T09:27:34.115Z,84.8
2023-05-08T09:29:34.063Z,84.3
2023-05-08T09:31:34.121Z,84.5
2023-05-08T09:33:34.106Z,84
2023-05-08T09:35:34.123Z,84.1
2023-05-08T09:37:34.109Z,84.7
2023-05-08T09:39:34.076Z,84.5
2023-05-08T09:41:34.052Z,84.6
2023-05-08T09:43:34.087Z,84.1
2023-05-08T09:45:34.071Z,83.9
2023-05-08T09:47:34.102Z,84.2
2023-05-08T09:49:34.068Z,83.9
2023-05-08T09:51:34.101Z,84.2
2023-05-08T09:53:34.240Z,83.7
2023-05-08T09:55:34.087Z,83.5
2023-05-08T09:57:34.235Z,84.2
2023-05-08T09:59:34.513Z,84.2
2023-05-08T10:01:34.312Z,84.2
2023-05-08T10:03:34.129Z,84.1
2023-05-08T10:05:34.132Z,83.5
2023-05-08T10:07:34.054Z,83.3
2023-05-08T10:09:42.991Z,83.1
2023-05-08T10:11:34.028Z,82.8
2023-05-08T10:13:34.054Z,83.5
2023-05-08T10:15:34.050Z,83.7
2023-05-08T10:17:34.198Z,83.9
2023-05-08T10:19:34.044Z,83.4
2023-05-08T10:21:34.044Z,83.2
2023-05-08T10:23:35.485Z,82.9
2023-05-08T10:25:35.555Z,82.6
2023-05-08T10:27:36.543Z,83.1
2023-05-08T10:29:34.144Z,83.3
2023-05-08T10:31:34.122Z,83.7
2023-05-08T10:33:34.097Z,83.9
2023-05-08T10:35:34.257Z,83.5
2023-05-08T10:37:34.041Z,84.1
2023-05-08T10:39:34.085Z,83.3
2023-05-08T10:41:35.174Z,83.3
2023-05-08T10:43:34.083Z,82.8
2023-05-08T10:45:34.132Z,83
2023-05-08T10:47:34.400Z,82.6
2023-05-08T10:49:34.023Z,82.2
2023-05-08T10:51:34.107Z,82.9
2023-05-08T10:53:34.114Z,82.6
2023-05-08T10:55:35.292Z,82.3
2023-05-08T10:57:34.081Z,82.5
2023-05-08T10:59:34.024Z,82.6
2023-05-08T11:01:34.127Z,82.9
2023-05-08T11:03:34.060Z,83
2023-05-08T11:05:33.995Z,82.1
2023-05-08T11:07:34.111Z,82
2023-05-08T11:09:34.006Z,82.3
2023-05-08T11:11:33.998Z,82.1
2023-05-08T11:13:33.978Z,82.3
2023-05-08T11:15:34.024Z,82.8
2023-05-08T11:17:34.007Z,82.7
2023-05-08T11:19:34.023Z,82.9
2023-05-08T11:21:33.978Z,82.9
2023-05-08T11:23:34.101Z,83.1
2023-05-08T11:25:34.118Z,82.3
2023-05-08T11:27:34.063Z,82.1
2023-05-08T11:29:34.037Z,81.8
2023-05-08T11:31:35.367Z,82.7
2023-05-08T11:33:36.879Z,82.8
2023-05-08T11:35:34.092Z,82.2
2023-05-08T11:37:33.966Z,81.8
2023-05-08T11:39:33.956Z,81.8
2023-05-08T11:41:33.950Z,82.2
2023-05-08T11:43:34.084Z,83.1
2023-05-08T11:45:34.097Z,83.1
2023-05-08T11:47:33.946Z,83
2023-05-08T11:48:57.486Z,83
2023-05-08T11:51:34.028Z,83
2023-05-08T11:52:05.969Z,83
2023-05-08T11:53:35.164Z,82.5
2023-05-08T11:55:36.463Z,82.8
2023-05-08T11:57:33.984Z,82.8
2023-05-08T11:59:34.217Z,82.5
2023-05-08T12:01:35.549Z,81.8
2023-05-08T12:03:34.050Z,82.3
2023-05-08T12:05:33.940Z,81.5
2023-05-08T12:07:34.139Z,80.9
2023-05-08T12:09:34.045Z,80.9
2023-05-08T12:11:33.957Z,80.7
2023-05-08T12:13:34.079Z,80
2023-05-08T12:15:33.955Z,79.2
2023-05-08T12:17:33.970Z,79.1
2023-05-08T12:19:33.970Z,79.3
2023-05-08T12:21:33.947Z,78.9
2023-05-08T12:23:33.917Z,78
2023-05-08T12:25:34.678Z,77.5
2023-05-08T12:27:33.952Z,76.7
2023-05-08T12:29:35.140Z,76.3
2023-05-08T12:31:34.049Z,76.3
2023-05-08T12:33:34.007Z,75.9
2023-05-08T12:35:35.362Z,75.6
2023-05-08T12:37:33.936Z,75.2
2023-05-08T12:39:34.001Z,75.3
2023-05-08T12:41:33.912Z,75.1
2023-05-08T12:43:33.926Z,74.7
2023-05-08T12:45:33.905Z,74.4
2023-05-08T12:47:33.981Z,73.6
2023-05-08T12:49:33.875Z,74.4
2023-05-08T12:51:33.929Z,74.5
2023-05-08T12:53:33.916Z,74.9
2023-05-08T12:55:33.876Z,74.7
2023-05-08T12:57:33.893Z,74.7
2023-05-08T12:59:33.896Z,75
2023-05-08T13:01:33.914Z,74.4
2023-05-08T13:03:34.008Z,74.9
2023-05-08T13:05:33.957Z,74.4
2023-05-08T13:07:33.960Z,74.9
2023-05-08T13:09:33.873Z,74.4
2023-05-08T13:11:33.916Z,74.6
2023-05-08T13:13:35.038Z,74.2
2023-05-08T13:15:33.849Z,73.5
2023-05-08T13:17:33.865Z,72.8
2023-05-08T13:19:33.820Z,73.6
2023-05-08T13:21:33.919Z,72.5
2023-05-08T13:23:34.121Z,73
2023-05-08T13:25:33.881Z,72.4
2023-05-08T13:27:33.845Z,71.8
2023-05-08T13:29:33.827Z,72.5
2023-05-08T13:31:33.946Z,71.9
2023-05-08T13:33:33.847Z,71.7
2023-05-08T13:35:34.053Z,71.7
2023-05-08T13:37:33.845Z,72
2023-05-08T13:39:33.967Z,69.8
2023-05-08T13:41:33.873Z,70.7
2023-05-08T13:43:34.077Z,69.7
2023-05-08T13:45:33.833Z,69.2
2023-05-08T13:47:33.888Z,68.7
2023-05-08T13:49:33.796Z,69.8
2023-05-08T13:51:33.829Z,70.1
2023-05-08T13:53:34.901Z,69
2023-05-08T13:55:35.022Z,67.7
2023-05-08T13:57:34.144Z,69
2023-05-08T13:59:33.783Z,68.4
2023-05-08T14:01:33.903Z,67.7
2023-05-08T14:03:33.865Z,67.7
2023-05-08T14:05:33.787Z,66.7
2023-05-08T14:07:33.853Z,67.1
2023-05-08T14:09:33.805Z,68.1
2023-05-08T14:11:33.863Z,68.4
2023-05-08T14:13:33.816Z,67.6
2023-05-08T14:15:37.198Z,68.1
2023-05-08T14:17:33.855Z,67.1
2023-05-08T14:19:34.460Z,66.6
2023-05-08T14:21:33.750Z,66.8
2023-05-08T14:23:33.807Z,67.8
2023-05-08T14:25:33.770Z,66.2
2023-05-08T14:27:34.976Z,68
2023-05-08T14:29:34.045Z,67.5
2023-05-08T14:31:33.891Z,68.1
2023-05-08T14:33:33.819Z,68.9
2023-05-08T14:35:33.807Z,68.4
2023-05-08T14:37:33.809Z,67.8
2023-05-08T14:39:33.888Z,67.3
2023-05-08T14:41:33.848Z,66.7
2023-05-08T14:43:33.986Z,66.7
2023-05-08T14:45:33.877Z,65.1
2023-05-08T14:47:33.891Z,64.9
2023-05-08T14:49:38.347Z,65.1
2023-05-08T14:51:33.795Z,66.3
2023-05-08T14:53:33.905Z,66.6
2023-05-08T14:55:33.818Z,66.8
2023-05-08T14:57:33.754Z,64.4
2023-05-08T14:59:33.930Z,64.9
2023-05-08T15:01:33.793Z,62.7
2023-05-08T15:03:35.241Z,62.3
2023-05-08T15:05:33.721Z,61.7
2023-05-08T15:07:33.797Z,62.3
2023-05-08T15:09:33.791Z,63.3
2023-05-08T15:11:36.296Z,60.6
2023-05-08T15:13:33.846Z,60.6
2023-05-08T15:15:33.880Z,59.7
2023-05-08T15:17:33.748Z,58.3
2023-05-08T15:19:33.862Z,59.2
2023-05-08T15:21:33.844Z,61.9
2023-05-08T15:23:33.767Z,60.4
2023-05-08T15:25:35.217Z,59.8
2023-05-08T15:27:33.748Z,57.5
2023-05-08T15:29:33.759Z,57.6
2023-05-08T15:31:33.867Z,58.2
2023-05-08T15:33:38.238Z,58.1
2023-05-08T15:35:33.738Z,56.9
2023-05-08T15:37:35.319Z,56
2023-05-08T15:39:33.676Z,56.7
2023-05-08T15:41:33.825Z,57.5
2023-05-08T15:43:33.779Z,57.8
2023-05-08T15:45:33.758Z,58.2
2023-05-08T15:47:34.093Z,58.6
2023-05-08T15:49:33.802Z,55.8
2023-05-08T15:51:33.762Z,56.9
2023-05-08T15:53:33.852Z,57.9
2023-05-08T15:55:33.666Z,56.7
2023-05-08T15:57:34.964Z,56.9
2023-05-08T15:59:33.698Z,54.2
2023-05-08T16:01:33.973Z,54.7
2023-05-08T16:03:33.983Z,54.4
2023-05-08T16:05:33.746Z,56.2
2023-05-08T16:07:33.714Z,54.7
2023-05-08T16:09:34.918Z,56.4
2023-05-08T16:11:33.854Z,55.3
2023-05-08T16:13:33.647Z,53.5
2023-05-08T16:15:33.671Z,53.1
2023-05-08T16:17:33.907Z,53.2
2023-05-08T16:19:34.855Z,54.7
2023-05-08T16:21:33.725Z,54.7
2023-05-08T16:23:33.786Z,53.9
2023-05-08T16:25:33.713Z,52.4
2023-05-08T16:27:33.693Z,52.8
2023-05-08T16:29:33.736Z,53.3
2023-05-08T16:31:33.848Z,55
2023-05-08T16:33:33.712Z,54.8
2023-05-08T16:35:33.670Z,55.9
2023-05-08T16:37:33.973Z,52
2023-05-08T16:39:33.690Z,50.2
2023-05-08T16:41:33.848Z,49.9
2023-05-08T16:43:33.677Z,50.1
2023-05-08T16:45:33.710Z,50.4
2023-05-08T16:47:33.852Z,49.1
2023-05-08T16:49:33.802Z,49
2023-05-08T16:51:33.946Z,47.9
2023-05-08T16:53:33.712Z,51.7
2023-05-08T16:55:34.990Z,48.5
2023-05-08T16:57:34.659Z,47.2
2023-05-08T16:59:34.964Z,49.2
2023-05-08T17:01:33.684Z,47.1
2023-05-08T17:03:33.772Z,46.7
2023-05-08T17:05:33.618Z,47.6
2023-05-08T17:07:33.605Z,47.4
2023-05-08T17:09:35.165Z,48.2
2023-05-08T17:11:35.310Z,48
2023-05-08T17:13:33.625Z,47.7
2023-05-08T17:15:33.601Z,48.3
2023-05-08T17:17:33.780Z,48.7
2023-05-08T17:19:33.724Z,46.7
2023-05-08T17:21:34.697Z,46.4
2023-05-08T17:23:33.651Z,47.3
2023-05-08T17:25:33.641Z,47.9
2023-05-08T17:27:33.644Z,47
2023-05-08T17:29:37.955Z,47.3
2023-05-08T17:31:33.711Z,48.9
2023-05-08T17:33:33.607Z,48.1
2023-05-08T17:35:33.643Z,50
2023-05-08T17:37:34.839Z,50.7
2023-05-08T17:39:33.633Z,49.6
2023-05-08T17:41:33.651Z,50.9
2023-05-08T17:43:33.672Z,49.8
2023-05-08T17:45:36.171Z,51.8
2023-05-08T17:47:33.706Z,51.7
2023-05-08T17:49:33.565Z,49.2
2023-05-08T17:51:33.705Z,50.4
2023-05-08T17:53:33.625Z,51.1
2023-05-08T17:55:33.618Z,50.6
2023-05-08T18:15:34.830Z,48.8
2023-05-08T18:18:02.045Z,47.4
2023-05-08T18:20:03.092Z,47.4
2023-05-08T18:22:03.002Z,47.1
2023-05-08T18:24:02.196Z,46.7
2023-05-08T18:26:02.047Z,46.3
2023-05-08T18:28:02.062Z,45.3
2023-05-08T18:30:02.254Z,46.4
2023-05-08T18:32:01.913Z,47.8
2023-05-08T18:34:04.448Z,48.5
2023-05-08T18:36:02.130Z,48.1
2023-05-08T18:38:01.864Z,47.2
2023-05-08T18:40:01.903Z,48
2023-05-08T18:42:02.018Z,47.7
2023-05-08T18:44:01.879Z,45.8
2023-05-08T18:46:02.074Z,45.2
2023-05-08T18:48:03.090Z,45.7
2023-05-08T18:50:02.038Z,44.5
2023-05-08T18:52:02.016Z,45.4
2023-05-08T18:54:12.231Z,46.3
2023-05-08T18:56:02.025Z,47
2023-05-08T18:58:01.998Z,47.5
2023-05-08T19:00:01.881Z,45.2
2023-05-08T19:02:02.153Z,44.9
2023-05-08T19:04:01.933Z,43.6
2023-05-08T19:06:01.873Z,44.6
2023-05-08T19:08:01.907Z,45.2
2023-05-08T19:10:01.828Z,43.2
2023-05-08T19:12:01.836Z,43.5
2023-05-08T19:14:01.927Z,43.9
2023-05-08T19:16:02.029Z,45.1
2023-05-08T19:18:01.871Z,45
2023-05-08T19:20:01.862Z,44.4
2023-05-08T19:22:02.104Z,43.1
2023-05-08T19:24:01.824Z,45.6
2023-05-08T19:26:03.209Z,44.1
2023-05-08T19:28:03.182Z,44.6
2023-05-08T19:30:01.896Z,43.1
2023-05-08T19:32:01.919Z,44.9
2023-05-08T19:34:04.603Z,43.5
2023-05-08T19:36:01.933Z,45.1
2023-05-08T19:38:02.026Z,45.4
2023-05-08T19:40:03.017Z,45.6
2023-05-08T19:42:02.052Z,45.7
2023-05-08T19:44:02.043Z,45.8
2023-05-08T19:46:01.879Z,45.3
2023-05-08T19:48:02.279Z,44.7
2023-05-08T19:50:02.020Z,44.4
2023-05-08T19:52:01.844Z,43.6
2023-05-08T19:54:01.856Z,44.3
2023-05-08T19:56:03.734Z,42.2
2023-05-08T19:58:01.961Z,43.5
2023-05-08T20:00:03.111Z,42
2023-05-08T20:02:01.870Z,42.9
2023-05-08T20:04:01.918Z,43.4
2023-05-08T20:08:01.847Z,42.8
2023-05-08T20:10:01.838Z,43.4
2023-05-08T20:12:01.882Z,43.3
2023-05-08T20:14:01.776Z,43.3
2023-05-08T20:16:01.912Z,45.6
2023-05-08T20:18:01.784Z,47
2023-05-08T20:20:01.879Z,48.1
2023-05-08T20:22:01.876Z,48.1
2023-05-08T20:24:06.262Z,48.3
2023-05-08T20:26:01.770Z,49
2023-05-08T20:28:01.757Z,49.2
2023-05-08T20:30:03.270Z,50.1
2023-05-08T20:32:27.228Z,51.2
2023-05-08T20:34:01.798Z,51.4
2023-05-08T20:36:01.798Z,52.8
2023-05-08T20:38:01.771Z,51
2023-05-08T20:40:01.727Z,52.2
2023-05-08T20:42:01.828Z,52.3
2023-05-08T20:44:01.741Z,52
2023-05-08T20:46:01.835Z,52.3
2023-05-08T20:48:01.826Z,52
2023-05-08T20:50:01.961Z,52.4
2023-05-08T20:52:01.757Z,53
2023-05-08T20:54:02.036Z,53
2023-05-08T20:56:02.824Z,52.5
2023-05-08T20:58:01.999Z,53.5
2023-05-08T21:00:01.956Z,53
2023-05-08T21:02:01.752Z,54.4
2023-05-08T21:04:01.861Z,54
2023-05-08T21:06:01.763Z,53.9
2023-05-08T21:08:03.135Z,54.7
2023-05-08T21:10:01.840Z,53.7
2023-05-08T21:12:01.832Z,54.2
2023-05-08T21:14:12.212Z,54.4
2023-05-08T21:16:01.744Z,55.1
2023-05-08T21:18:02.074Z,54.4
2023-05-08T21:20:01.756Z,55.3
2023-05-08T21:22:02.902Z,55.1
2023-05-08T21:24:01.720Z,53.8
2023-05-08T21:26:04.447Z,54.7
2023-05-08T21:28:01.722Z,55.1
2023-05-08T21:30:01.852Z,54.3
2023-05-08T21:32:01.834Z,54.7
2023-05-08T21:34:01.941Z,54.2
2023-05-08T21:36:01.840Z,54.5
2023-05-08T21:38:01.777Z,53.4
2023-05-08T21:40:04.606Z,52.8
2023-05-08T21:42:01.779Z,53.2
2023-05-08T21:44:01.867Z,52.8
2023-05-08T21:46:01.787Z,54.1
2023-05-08T21:48:01.799Z,53.3
2023-05-08T21:50:01.742Z,53.5
2023-05-08T21:52:01.746Z,53.2
2023-05-08T21:54:01.781Z,53.5
2023-05-08T21:56:01.750Z,53.6
2023-05-08T21:58:01.849Z,53.4
2023-05-08T22:00:01.776Z,53.4
2023-05-08T22:02:01.728Z,50.6
2023-05-08T22:04:02.865Z,51
2023-05-08T22:06:01.663Z,51.7
2023-05-08T22:08:02.922Z,51.9
2023-05-08T22:10:01.785Z,50
2023-05-08T22:12:01.689Z,50.5
2023-05-08T22:14:01.783Z,48.6
2023-05-08T22:16:01.688Z,49.8
2023-05-08T22:18:01.761Z,48
2023-05-08T22:20:01.771Z,48.6
2023-05-08T22:22:01.723Z,50
2023-05-08T22:24:01.971Z,49.6
2023-05-08T22:26:03.191Z,49.8
2023-05-08T22:28:01.750Z,50.4
2023-05-08T22:30:01.784Z,50.7
2023-05-08T22:32:01.735Z,50.1
2023-05-08T22:34:01.671Z,51.1
2023-05-08T22:36:01.802Z,50.9
2023-05-08T22:38:01.646Z,50.8
2023-05-08T22:40:01.714Z,51
2023-05-08T22:42:01.714Z,51
2023-05-08T22:44:01.654Z,50.8
2023-05-08T22:46:01.634Z,51.3
2023-05-08T22:48:01.659Z,51
2023-05-08T22:50:01.740Z,51.3
2023-05-08T22:52:01.736Z,51.2
2023-05-08T22:54:01.821Z,50.6
2023-05-08T22:56:04.378Z,50.9
2023-05-08T22:58:03.204Z,51.5
2023-05-08T23:00:01.703Z,52
2023-05-08T23:02:01.644Z,52.4
2023-05-08T23:04:01.664Z,52.9
2023-05-08T23:06:01.656Z,53.3
2023-05-08T23:08:01.625Z,53.4
2023-05-08T23:10:01.638Z,53.3
2023-05-08T23:12:01.617Z,53.5
2023-05-08T23:14:01.669Z,54.2
2023-05-08T23:16:01.795Z,56
2023-05-08T23:18:01.671Z,55
2023-05-08T23:20:01.619Z,56.1
2023-05-08T23:22:01.725Z,56.2
2023-05-08T23:24:01.602Z,56.6
2023-05-08T23:26:01.840Z,58.3
2023-05-08T23:28:01.624Z,56.7
2023-05-08T23:30:01.761Z,57
2023-05-08T23:32:01.770Z,58.7
2023-05-08T23:34:01.624Z,59.1
2023-05-08T23:36:01.639Z,58.5
2023-05-08T23:38:01.619Z,58.1
2023-05-08T23:40:04.126Z,57.9
2023-05-08T23:42:01.587Z,57.6
2023-05-08T23:44:01.551Z,58.4
2023-05-08T23:46:01.655Z,58.3
2023-05-08T23:48:01.772Z,58.1
2023-05-08T23:50:01.676Z,58.5
2023-05-08T23:52:03.083Z,59.7
2023-05-08T23:54:01.614Z,60.1
2023-05-08T23:56:01.599Z,60.8
2023-05-08T23:58:01.628Z,60.6
